createdAt,value
2022-10-06T00:01:49.205Z,1.90
2022-10-06T00:04:21.665Z,2.03
2022-10-06T00:06:51.472Z,1.23
2022-10-06T00:09:24.681Z,1.52
2022-10-06T00:11:54.525Z,2.03
2022-10-06T00:14:24.876Z,1.17
2022-10-06T00:16:55.255Z,0.85
2022-10-06T00:19:27.573Z,1.48
2022-10-06T00:21:57.450Z,1.80
2022-10-06T00:24:27.741Z,1.60
2022-10-06T00:26:57.370Z,1.50
2022-10-06T00:29:27.619Z,1.45
2022-10-06T00:31:57.801Z,1.20
2022-10-06T00:34:30.070Z,1.67
2022-10-06T00:37:00.392Z,2.08
2022-10-06T00:39:30.436Z,1.25
2022-10-06T00:42:01.470Z,1.30
2022-10-06T00:44:31.604Z,1.75
2022-10-06T00:47:02.082Z,1.42
2022-10-06T00:49:40.326Z,1.33
2022-10-06T00:52:18.174Z,1.55
2022-10-06T00:54:48.687Z,1.67
2022-10-06T00:57:19.883Z,2.00
2022-10-06T00:59:50.311Z,1.88
2022-10-06T01:02:27.846Z,1.42
2022-10-06T01:05:04.076Z,1.50
2022-10-06T01:07:35.528Z,2.28
2022-10-06T01:10:06.450Z,1.95
2022-10-06T01:12:37.377Z,1.08
2022-10-06T01:15:09.624Z,2.05
2022-10-06T01:17:48.977Z,1.85
2022-10-06T01:20:23.901Z,1.60
2022-10-06T01:22:59.750Z,1.38
2022-10-06T01:25:31.691Z,1.50
2022-10-06T01:28:04.325Z,1.52
2022-10-06T01:30:40.342Z,2.65
2022-10-06T01:33:10.745Z,2.40
2022-10-06T01:35:41.239Z,1.90
2022-10-06T01:38:13.064Z,2.58
2022-10-06T01:40:43.399Z,1.48
2022-10-06T01:43:14.232Z,1.35
2022-10-06T01:45:44.587Z,1.20
2022-10-06T01:48:14.461Z,1.80
2022-10-06T01:50:44.979Z,1.50
2022-10-06T01:53:17.545Z,2.25
2022-10-06T01:55:47.637Z,1.83
2022-10-06T01:58:17.640Z,1.33
2022-10-06T02:00:48.208Z,1.55
2022-10-06T02:03:18.442Z,1.55
2022-10-06T02:05:48.838Z,1.90
2022-10-06T02:08:20.660Z,1.80
2022-10-06T02:10:50.731Z,1.60
2022-10-06T02:13:21.697Z,1.63
2022-10-06T02:15:52.807Z,1.85
2022-10-06T02:18:22.843Z,2.08
2022-10-06T02:20:53.097Z,1.45
2022-10-06T02:23:24.697Z,2.03
2022-10-06T02:26:04.326Z,1.40
2022-10-06T02:28:35.194Z,1.48
2022-10-06T02:31:07.580Z,1.85
2022-10-06T02:33:40.411Z,1.40
2022-10-06T02:36:15.007Z,1.48
2022-10-06T02:38:47.341Z,1.73
2022-10-06T02:41:17.812Z,1.48
2022-10-06T02:43:48.075Z,2.22
2022-10-06T02:46:19.007Z,1.60
2022-10-06T02:48:50.820Z,1.35
2022-10-06T02:51:23.719Z,1.15
2022-10-06T02:53:55.670Z,1.50
2022-10-06T02:56:28.160Z,1.30
2022-10-06T02:58:57.887Z,1.30
2022-10-06T03:01:30.395Z,1.77
2022-10-06T03:04:00.719Z,1.40
2022-10-06T03:06:33.549Z,2.00
2022-10-06T03:09:08.506Z,2.05
2022-10-06T03:11:40.628Z,1.40
2022-10-06T03:14:11.537Z,2.05
2022-10-06T03:16:44.366Z,1.67
2022-10-06T03:19:14.332Z,1.77
2022-10-06T03:21:46.608Z,1.65
2022-10-06T03:24:19.102Z,1.05
2022-10-06T03:26:50.644Z,1.63
2022-10-06T03:29:24.147Z,2.17
2022-10-06T03:31:54.512Z,1.10
2022-10-06T03:34:24.523Z,2.10
2022-10-06T03:36:54.713Z,1.40
2022-10-06T03:39:26.741Z,1.77
2022-10-06T03:41:57.225Z,1.75
2022-10-06T03:44:27.590Z,2.88
2022-10-06T03:46:57.767Z,3.05
2022-10-06T03:49:28.124Z,2.30
2022-10-06T03:51:58.427Z,1.60
2022-10-06T03:54:29.848Z,2.38
2022-10-06T03:56:59.910Z,1.63
2022-10-06T03:59:34.575Z,1.27
2022-10-06T04:02:05.807Z,1.85
2022-10-06T04:04:36.226Z,1.50
2022-10-06T04:07:06.538Z,1.40
2022-10-06T04:09:38.925Z,2.35
2022-10-06T04:12:09.164Z,2.20
2022-10-06T04:14:39.314Z,1.45
2022-10-06T04:17:09.528Z,1.23
2022-10-06T04:19:39.970Z,1.77
2022-10-06T04:22:10.432Z,1.52
2022-10-06T04:24:42.462Z,1.63
2022-10-06T04:27:31.575Z,1.52
2022-10-06T04:30:01.965Z,1.67
2022-10-06T04:32:32.715Z,1.42
2022-10-06T04:35:02.527Z,1.58
2022-10-06T04:37:32.736Z,1.20
2022-10-06T04:40:04.192Z,1.50
2022-10-06T04:42:35.339Z,1.65
2022-10-06T04:45:06.043Z,1.67
2022-10-06T04:47:36.514Z,3.58
2022-10-06T04:50:07.351Z,1.70
2022-10-06T04:52:38.346Z,1.48
2022-10-06T04:55:13.069Z,2.00
2022-10-06T04:57:43.539Z,1.73
2022-10-06T05:00:27.395Z,1.35
2022-10-06T05:02:58.228Z,1.77
2022-10-06T05:05:28.023Z,2.30
2022-10-06T05:07:58.316Z,1.52
2022-10-06T05:10:30.678Z,1.30
2022-10-06T05:13:00.593Z,1.73
2022-10-06T05:15:30.834Z,1.60
2022-10-06T05:18:01.168Z,2.90
2022-10-06T05:20:31.640Z,1.73
2022-10-06T05:23:01.625Z,1.48
2022-10-06T05:25:33.125Z,2.03
2022-10-06T05:28:03.433Z,3.38
2022-10-06T05:30:33.825Z,1.40
2022-10-06T05:33:03.771Z,1.25
2022-10-06T05:35:33.826Z,1.30
2022-10-06T05:38:03.963Z,1.30
2022-10-06T05:40:35.495Z,1.85
2022-10-06T05:43:05.746Z,2.38
2022-10-06T05:45:36.001Z,1.45
2022-10-06T05:48:05.980Z,1.90
2022-10-06T05:50:36.337Z,2.05
2022-10-06T05:53:06.802Z,1.50
2022-10-06T05:55:39.096Z,1.48
2022-10-06T05:58:09.462Z,2.08
2022-10-06T06:00:39.284Z,2.65
2022-10-06T06:03:12.209Z,1.20
2022-10-06T06:05:44.796Z,0.93
2022-10-06T06:08:15.082Z,1.20
2022-10-06T06:10:46.826Z,1.38
2022-10-06T06:13:23.100Z,0.90
2022-10-06T06:16:04.916Z,0.98
2022-10-06T06:18:36.935Z,1.05
2022-10-06T06:21:10.639Z,0.93
2022-10-06T06:23:45.291Z,1.20
2022-10-06T06:26:20.046Z,1.00
2022-10-06T06:28:51.427Z,1.15
2022-10-06T06:31:23.791Z,0.60
2022-10-06T06:33:56.844Z,0.88
2022-10-06T06:36:31.389Z,0.90
2022-10-06T06:39:01.869Z,0.73
2022-10-06T06:41:36.346Z,1.50
2022-10-06T06:44:07.802Z,1.00
2022-10-06T06:46:38.280Z,0.73
2022-10-06T06:49:10.096Z,1.05
2022-10-06T06:51:42.960Z,1.80
2022-10-06T06:54:13.723Z,1.13
2022-10-06T06:56:46.281Z,0.80
2022-10-06T06:59:16.463Z,1.23
2022-10-06T07:01:49.278Z,1.00
2022-10-06T07:04:20.445Z,1.13
2022-10-06T07:06:57.717Z,1.10
2022-10-06T07:09:28.331Z,0.98
2022-10-06T07:12:00.061Z,1.42
2022-10-06T07:14:30.435Z,1.13
2022-10-06T07:17:17.328Z,1.02
2022-10-06T07:20:04.270Z,0.77
2022-10-06T07:22:51.149Z,1.23
2022-10-06T07:25:27.108Z,0.63
2022-10-06T07:27:59.309Z,0.90
2022-10-06T07:30:30.856Z,1.50
2022-10-06T07:33:01.360Z,1.48
2022-10-06T07:35:31.711Z,1.52
2022-10-06T07:38:08.468Z,1.55
2022-10-06T07:40:46.258Z,1.30
2022-10-06T07:43:22.970Z,1.17
2022-10-06T07:45:53.126Z,0.88
2022-10-06T07:48:25.248Z,0.93
2022-10-06T07:50:56.333Z,0.77
2022-10-06T07:53:30.943Z,0.80
2022-10-06T07:56:07.510Z,1.30
2022-10-06T07:58:40.440Z,0.70
2022-10-06T08:01:13.314Z,1.50
2022-10-06T08:03:45.048Z,0.50
2022-10-06T08:06:17.390Z,1.27
2022-10-06T08:08:52.807Z,0.77
2022-10-06T08:11:23.757Z,2.90
2022-10-06T08:13:55.875Z,0.70
2022-10-06T08:16:30.787Z,0.82
2022-10-06T08:19:04.135Z,0.82
2022-10-06T08:21:36.807Z,0.50
2022-10-06T08:24:07.105Z,0.60
2022-10-06T08:26:36.785Z,0.77
2022-10-06T08:29:08.403Z,0.80
2022-10-06T08:31:38.247Z,0.65
2022-10-06T08:34:11.989Z,1.02
2022-10-06T08:36:56.977Z,1.00
2022-10-06T08:39:34.999Z,0.75
2022-10-06T08:42:05.154Z,0.85
2022-10-06T08:44:44.786Z,0.90
2022-10-06T08:47:20.961Z,1.05
2022-10-06T08:49:55.671Z,0.60
2022-10-06T08:52:50.694Z,1.00
2022-10-06T08:55:38.949Z,0.65
2022-10-06T08:58:38.383Z,0.85
2022-10-06T09:01:23.885Z,1.05
2022-10-06T09:03:58.527Z,0.60
2022-10-06T09:06:51.191Z,0.68
2022-10-06T09:09:54.111Z,0.95
2022-10-06T09:12:35.232Z,0.65
2022-10-06T09:15:26.130Z,1.13
2022-10-06T09:18:04.878Z,0.73
2022-10-06T09:20:42.899Z,0.57
2022-10-06T09:23:40.325Z,1.33
2022-10-06T09:26:15.519Z,0.85
2022-10-06T09:28:47.603Z,0.77
2022-10-06T09:31:25.147Z,0.60
2022-10-06T09:34:06.083Z,0.60
2022-10-06T09:37:09.820Z,1.40
2022-10-06T09:39:42.231Z,1.00
2022-10-06T09:42:20.945Z,0.60
2022-10-06T09:45:03.172Z,0.45
2022-10-06T09:47:45.525Z,0.52
2022-10-06T09:50:25.196Z,1.95
2022-10-06T09:53:32.313Z,0.70
2022-10-06T09:56:07.297Z,0.47
2022-10-06T09:58:39.587Z,0.68
2022-10-06T10:01:14.715Z,0.85
2022-10-06T10:06:44.111Z,0.60
2022-10-06T10:09:32.598Z,0.63
2022-10-06T10:12:41.140Z,0.50
2022-10-06T10:15:34.368Z,0.52
2022-10-06T10:18:07.804Z,1.02
2022-10-06T10:20:51.359Z,0.52
2022-10-06T10:23:31.594Z,1.02
2022-10-06T10:26:19.872Z,0.63
2022-10-06T10:29:33.059Z,0.63
2022-10-06T10:32:15.929Z,0.30
2022-10-06T10:35:09.026Z,0.95
2022-10-06T10:37:47.411Z,1.02
2022-10-06T10:40:36.259Z,0.47
2022-10-06T10:43:21.446Z,0.63
2022-10-06T10:45:58.190Z,0.50
2022-10-06T10:48:36.947Z,0.30
2022-10-06T10:51:12.485Z,0.75
2022-10-06T10:53:50.125Z,1.75
2022-10-06T10:56:28.609Z,1.33
2022-10-06T10:59:16.353Z,1.95
2022-10-06T11:01:55.370Z,2.80
2022-10-06T11:04:25.471Z,1.75
2022-10-06T11:07:23.836Z,0.85
2022-10-06T11:10:12.460Z,1.35
2022-10-06T11:13:05.424Z,3.30
2022-10-06T11:16:22.244Z,2.38
2022-10-06T11:19:18.617Z,2.10
2022-10-06T11:22:05.104Z,3.13
2022-10-06T11:24:46.504Z,1.80
2022-10-06T11:27:36.850Z,2.25
2022-10-06T11:30:19.850Z,2.17
2022-10-06T11:33:07.441Z,1.60
2022-10-06T11:35:41.224Z,1.55
2022-10-06T11:38:21.957Z,1.60
2022-10-06T11:41:10.534Z,1.42
2022-10-06T11:43:51.333Z,1.02
2022-10-06T11:46:42.634Z,1.27
2022-10-06T11:49:51.870Z,1.05
2022-10-06T11:52:48.700Z,0.77
2022-10-06T11:55:29.202Z,0.80
2022-10-06T12:01:10.334Z,0.70
2022-10-06T12:04:19.509Z,0.70
2022-10-06T12:07:05.157Z,0.80
2022-10-06T12:09:53.313Z,0.65
2022-10-06T12:13:11.375Z,0.70
2022-10-06T12:19:30.749Z,1.27
2022-10-06T12:22:17.382Z,0.73
2022-10-06T12:24:58.360Z,0.90
2022-10-06T12:27:51.154Z,0.50
2022-10-06T12:30:29.796Z,0.47
2022-10-06T12:33:05.670Z,0.70
2022-10-06T12:35:40.732Z,0.50
2022-10-06T12:38:45.884Z,0.60
2022-10-06T12:41:17.540Z,0.30
2022-10-06T12:43:57.970Z,0.75
2022-10-06T12:46:39.121Z,0.30
2022-10-06T12:49:35.844Z,0.40
2022-10-06T12:52:50.143Z,0.60
2022-10-06T12:55:49.587Z,0.80
2022-10-06T12:58:21.375Z,0.43
2022-10-06T13:00:52.978Z,0.45
2022-10-06T13:03:28.821Z,0.52
2022-10-06T13:06:02.917Z,0.38
2022-10-06T13:08:37.739Z,0.30
2022-10-06T13:11:21.911Z,0.40
2022-10-06T13:13:55.156Z,0.40
2022-10-06T13:16:29.471Z,0.85
2022-10-06T13:19:02.750Z,0.38
2022-10-06T13:21:33.332Z,0.38
2022-10-06T13:24:07.864Z,0.45
2022-10-06T13:26:38.146Z,0.30
2022-10-06T13:29:21.825Z,0.50
2022-10-06T13:31:55.037Z,0.28
2022-10-06T13:34:35.171Z,0.40
2022-10-06T13:37:05.731Z,0.20
2022-10-06T13:39:38.098Z,0.20
2022-10-06T13:42:16.610Z,0.20
2022-10-06T13:44:57.109Z,0.20
2022-10-06T13:47:31.690Z,0.20
2022-10-06T13:50:08.358Z,0.38
2022-10-06T13:52:42.339Z,0.32
2022-10-06T13:55:23.459Z,0.68
2022-10-06T13:58:10.379Z,0.20
2022-10-06T14:00:56.342Z,0.10
2022-10-06T14:06:21.800Z,0.25
2022-10-06T14:08:57.503Z,0.10
2022-10-06T14:11:32.329Z,0.20
2022-10-06T14:14:06.172Z,0.52
2022-10-06T14:16:37.122Z,0.47
2022-10-06T14:19:08.699Z,0.40
2022-10-06T14:21:45.398Z,0.15
2022-10-06T14:24:28.880Z,0.08
2022-10-06T14:27:06.389Z,0.30
2022-10-06T14:29:38.274Z,1.00
2022-10-06T14:32:19.280Z,0.47
2022-10-06T14:34:49.004Z,0.20
2022-10-06T14:37:19.065Z,0.15
2022-10-06T14:39:55.501Z,0.10
2022-10-06T14:42:28.102Z,0.32
2022-10-06T14:44:58.653Z,0.32
2022-10-06T14:47:30.958Z,0.20
2022-10-06T14:50:01.339Z,0.25
2022-10-06T14:52:31.598Z,0.22
2022-10-06T14:55:01.979Z,0.28
2022-10-06T14:57:36.173Z,0.20
2022-10-06T15:00:09.547Z,0.32
2022-10-06T15:02:39.605Z,0.10
2022-10-06T15:05:10.790Z,0.38
2022-10-06T15:07:57.378Z,0.52
2022-10-06T15:10:27.792Z,0.20
2022-10-06T15:13:00.682Z,0.10
2022-10-06T15:15:34.162Z,0.08
2022-10-06T15:18:04.841Z,0.40
2022-10-06T15:20:35.503Z,0.28
2022-10-06T15:23:05.851Z,0.20
2022-10-06T15:25:52.950Z,0.57
2022-10-06T15:28:41.616Z,0.20
2022-10-06T15:31:12.685Z,0.50
2022-10-06T15:33:43.929Z,0.30
2022-10-06T15:36:21.339Z,0.10
2022-10-06T15:38:51.840Z,0.10
2022-10-06T15:41:21.891Z,0.10
2022-10-06T15:43:59.099Z,0.10
2022-10-06T15:46:33.582Z,0.20
2022-10-06T15:49:06.698Z,0.30
2022-10-06T15:51:43.210Z,0.30
2022-10-06T15:54:13.621Z,0.43
2022-10-06T15:56:44.542Z,0.77
2022-10-06T15:59:17.474Z,0.32
2022-10-06T16:01:49.085Z,0.25
2022-10-06T16:04:34.671Z,0.30
2022-10-06T16:07:05.213Z,1.00
2022-10-06T16:09:43.411Z,0.25
2022-10-06T16:12:16.744Z,1.20
2022-10-06T16:14:49.192Z,0.28
2022-10-06T16:17:20.502Z,0.13
2022-10-06T16:19:50.988Z,0.30
2022-10-06T16:22:22.432Z,0.20
2022-10-06T16:24:52.817Z,0.20
2022-10-06T16:27:33.562Z,0.20
2022-10-06T16:30:07.407Z,0.70
2022-10-06T16:32:37.785Z,0.17
2022-10-06T16:35:09.158Z,0.20
2022-10-06T16:37:39.515Z,0.20
2022-10-06T16:40:10.955Z,0.20
2022-10-06T16:42:43.790Z,0.63
2022-10-06T16:45:18.037Z,0.45
2022-10-06T16:47:48.319Z,0.25
2022-10-06T16:50:18.827Z,0.20
2022-10-06T16:52:48.993Z,0.20
2022-10-06T16:55:19.713Z,0.22
2022-10-06T16:57:50.222Z,0.52
2022-10-06T17:00:22.866Z,0.10
2022-10-06T17:02:54.911Z,0.93
2022-10-06T17:05:24.981Z,0.20
2022-10-06T17:07:59.036Z,0.70
2022-10-06T17:10:29.284Z,0.50
2022-10-06T17:12:59.567Z,0.25
2022-10-06T17:15:33.626Z,0.30
2022-10-06T17:18:03.988Z,0.55
2022-10-06T17:20:33.815Z,0.20
2022-10-06T17:23:04.216Z,0.30
2022-10-06T17:25:34.283Z,0.30
2022-10-06T17:28:04.799Z,1.00
2022-10-06T17:30:36.995Z,0.35
2022-10-06T17:33:07.624Z,0.20
2022-10-06T17:35:40.683Z,0.32
2022-10-06T17:38:11.255Z,0.30
2022-10-06T17:40:46.503Z,0.30
2022-10-06T17:43:16.759Z,0.20
2022-10-06T17:45:49.217Z,0.40
2022-10-06T17:48:19.251Z,0.28
2022-10-06T17:51:00.841Z,0.22
2022-10-06T17:53:31.107Z,0.20
2022-10-06T17:56:03.549Z,0.75
2022-10-06T17:58:35.727Z,0.35
2022-10-06T18:01:14.443Z,0.57
2022-10-06T18:03:47.105Z,0.57
2022-10-06T18:06:20.143Z,0.63
2022-10-06T18:08:50.890Z,0.30
2022-10-06T18:11:40.094Z,0.77
2022-10-06T18:14:12.258Z,0.30
2022-10-06T18:16:47.670Z,0.30
2022-10-06T18:19:25.857Z,0.32
2022-10-06T18:21:58.818Z,0.38
2022-10-06T18:24:32.317Z,0.35
2022-10-06T18:27:03.158Z,0.28
2022-10-06T18:29:35.687Z,0.65
2022-10-06T18:36:11.561Z,0.40
2022-10-06T18:37:54.420Z,0.28
2022-10-06T18:40:27.064Z,0.52
2022-10-06T18:42:57.462Z,0.20
2022-10-06T18:45:55.968Z,0.32
2022-10-06T18:48:44.902Z,0.30
2022-10-06T18:51:15.465Z,0.43
2022-10-06T18:53:45.667Z,0.28
2022-10-06T18:56:17.469Z,0.32
2022-10-06T18:58:47.607Z,0.35
2022-10-06T19:01:18.224Z,0.40
2022-10-06T19:03:50.156Z,0.30
2022-10-06T19:06:20.139Z,0.43
2022-10-06T19:08:57.427Z,1.65
2022-10-06T19:11:58.620Z,0.50
2022-10-06T19:14:32.127Z,0.45
2022-10-06T19:17:04.987Z,0.30
2022-10-06T19:19:38.778Z,0.40
2022-10-06T19:22:10.034Z,0.43
2022-10-06T19:24:42.984Z,0.38
2022-10-06T19:27:16.561Z,0.20
2022-10-06T19:29:53.531Z,0.50
2022-10-06T19:32:28.121Z,0.30
2022-10-06T19:35:06.330Z,0.22
2022-10-06T19:37:39.221Z,0.50
2022-10-06T19:40:11.706Z,0.40
2022-10-06T19:42:49.470Z,0.70
2022-10-06T19:45:21.596Z,0.50
2022-10-06T19:47:51.716Z,0.68
2022-10-06T19:50:24.240Z,0.43
2022-10-06T19:52:56.060Z,0.47
2022-10-06T19:55:29.535Z,0.20
2022-10-06T19:58:00.550Z,0.60
2022-10-06T20:00:30.978Z,0.43
2022-10-06T20:03:01.623Z,0.52
2022-10-06T20:05:33.512Z,0.43
2022-10-06T20:08:04.382Z,0.50
2022-10-06T20:10:35.637Z,0.28
2022-10-06T20:13:06.884Z,0.25
2022-10-06T20:15:37.901Z,0.40
2022-10-06T20:18:08.713Z,0.30
2022-10-06T20:20:41.092Z,0.80
2022-10-06T20:23:11.443Z,0.30
2022-10-06T20:25:41.650Z,0.47
2022-10-06T20:28:12.189Z,0.50
2022-10-06T20:30:50.086Z,0.93
2022-10-06T20:33:20.669Z,0.80
2022-10-06T20:35:53.086Z,0.20
2022-10-06T20:38:43.226Z,0.30
2022-10-06T20:41:11.723Z,0.40
2022-10-06T20:43:43.625Z,0.35
2022-10-06T20:46:14.902Z,0.47
2022-10-06T20:48:44.784Z,0.40
2022-10-06T20:51:17.307Z,0.40
2022-10-06T20:53:47.979Z,0.50
2022-10-06T20:56:18.547Z,0.50
2022-10-06T20:58:50.530Z,0.30
2022-10-06T21:01:23.798Z,0.35
2022-10-06T21:03:55.849Z,0.30
2022-10-06T21:06:28.224Z,0.57
2022-10-06T21:09:01.885Z,0.47
2022-10-06T21:11:32.478Z,0.85
2022-10-06T21:14:03.616Z,0.30
2022-10-06T21:16:36.613Z,0.45
2022-10-06T21:19:08.614Z,0.30
2022-10-06T21:21:41.350Z,0.45
2022-10-06T21:24:11.986Z,0.95
2022-10-06T21:26:43.270Z,0.40
2022-10-06T21:29:14.528Z,0.50
2022-10-06T21:31:46.479Z,0.50
2022-10-06T21:34:17.113Z,0.60
2022-10-06T21:36:49.557Z,0.57
2022-10-06T21:39:20.105Z,0.32
2022-10-06T21:41:50.564Z,0.30
2022-10-06T21:44:24.414Z,0.30
2022-10-06T21:46:57.377Z,0.38
2022-10-06T21:49:28.713Z,0.40
2022-10-06T21:52:05.140Z,0.20
2022-10-06T21:54:35.958Z,0.47
2022-10-06T21:57:08.487Z,0.50
2022-10-06T21:59:38.807Z,0.45
2022-10-06T22:02:09.382Z,0.38
2022-10-06T22:04:40.671Z,0.45
2022-10-06T22:07:12.583Z,0.47
2022-10-06T22:09:42.720Z,0.40
2022-10-06T22:12:13.046Z,0.30
2022-10-06T22:14:43.458Z,0.68
2022-10-06T22:17:13.158Z,0.40
2022-10-06T22:19:43.356Z,0.30
2022-10-06T22:22:15.804Z,0.32
2022-10-06T22:24:46.037Z,0.65
2022-10-06T22:27:16.294Z,0.40
2022-10-06T22:29:46.703Z,0.22
2022-10-06T22:32:16.764Z,0.50
2022-10-06T22:34:47.146Z,0.45
2022-10-06T22:37:18.611Z,0.52
2022-10-06T22:39:48.711Z,0.40
2022-10-06T22:42:18.724Z,0.30
2022-10-06T22:44:48.814Z,0.35
2022-10-06T22:47:19.511Z,0.35
2022-10-06T22:49:49.999Z,0.65
2022-10-06T22:52:22.055Z,0.45
2022-10-06T22:54:52.407Z,0.30
2022-10-06T22:57:22.943Z,0.35
2022-10-06T22:59:53.546Z,0.90
2022-10-06T23:02:23.675Z,0.95
2022-10-06T23:04:53.707Z,0.55
2022-10-06T23:07:26.027Z,0.20
2022-10-06T23:09:56.057Z,0.30
2022-10-06T23:12:26.516Z,0.30
2022-10-06T23:14:56.897Z,0.38
2022-10-06T23:17:27.660Z,0.47
2022-10-06T23:19:58.176Z,0.40
2022-10-06T23:22:30.357Z,0.45
2022-10-06T23:25:00.708Z,0.50
2022-10-06T23:27:31.112Z,0.25
2022-10-06T23:30:01.380Z,0.40
2022-10-06T23:32:31.744Z,0.40
2022-10-06T23:35:02.361Z,0.30
2022-10-06T23:37:34.690Z,0.30
2022-10-06T23:40:04.913Z,0.55
2022-10-06T23:42:35.343Z,0.50
2022-10-06T23:45:13.487Z,0.32
2022-10-06T23:47:44.038Z,0.88
2022-10-06T23:50:14.440Z,0.73
2022-10-06T23:52:45.569Z,0.50
2022-10-06T23:55:15.361Z,1.23
2022-10-06T23:57:46.210Z,0.75
